createdAt,value
2019-05-23T00:00:03.591Z,19.80
2019-05-23T00:02:49.247Z,19.80
2019-05-23T00:05:30.506Z,19.80
2019-05-23T00:08:01.629Z,19.80
2019-05-23T00:10:33.743Z,19.70
2019-05-23T00:13:10.559Z,19.70
2019-05-23T00:15:42.007Z,19.70
2019-05-23T00:18:11.322Z,19.70
2019-05-23T00:20:41.371Z,19.70
2019-05-23T00:23:11.118Z,19.70
2019-05-23T00:25:40.633Z,19.70
2019-05-23T00:28:11.364Z,19.70
2019-05-23T00:30:58.759Z,19.70
2019-05-23T00:33:30.407Z,19.70
2019-05-23T00:36:00.467Z,19.70
2019-05-23T00:38:29.647Z,19.70
2019-05-23T00:40:59.986Z,19.70
2019-05-23T00:43:29.602Z,19.70
2019-05-23T00:46:00.137Z,19.70
2019-05-23T00:48:30.417Z,19.70
2019-05-23T00:50:59.671Z,19.70
2019-05-23T00:53:29.929Z,19.70
2019-05-23T00:56:00.007Z,19.70
2019-05-23T00:58:30.606Z,19.70
2019-05-23T01:01:00.477Z,19.70
2019-05-23T01:03:30.148Z,19.70
2019-05-23T01:06:00.248Z,19.70
2019-05-23T01:08:31.220Z,19.70
2019-05-23T01:11:00.817Z,19.70
2019-05-23T01:13:30.125Z,19.70
2019-05-23T01:16:00.298Z,19.70
2019-05-23T01:18:29.509Z,19.70
2019-05-23T01:21:14.241Z,19.70
2019-05-23T01:23:47.360Z,19.70
2019-05-23T01:26:16.917Z,19.70
2019-05-23T01:28:46.211Z,19.70
2019-05-23T01:31:19.205Z,19.70
2019-05-23T01:33:49.480Z,19.70
2019-05-23T01:36:18.710Z,19.70
2019-05-23T01:38:48.847Z,19.70
2019-05-23T01:41:17.932Z,19.70
2019-05-23T01:43:47.136Z,19.60
2019-05-23T01:46:16.253Z,19.60
2019-05-23T01:48:45.816Z,19.70
2019-05-23T01:51:15.276Z,19.70
2019-05-23T01:53:44.365Z,19.70
2019-05-23T01:56:13.825Z,19.70
2019-05-23T01:58:42.930Z,19.70
2019-05-23T02:01:12.541Z,19.60
2019-05-23T02:03:41.736Z,19.70
2019-05-23T02:06:11.241Z,19.70
2019-05-23T02:08:40.908Z,19.60
2019-05-23T02:11:10.151Z,19.60
2019-05-23T02:13:39.211Z,19.60
2019-05-23T02:16:08.418Z,19.60
2019-05-23T02:18:38.069Z,19.60
2019-05-23T02:21:07.646Z,19.60
2019-05-23T02:23:37.346Z,19.60
2019-05-23T02:26:07.205Z,19.60
2019-05-23T02:29:02.294Z,19.60
2019-05-23T02:31:32.657Z,19.60
2019-05-23T02:34:02.197Z,19.60
2019-05-23T02:36:32.635Z,19.60
2019-05-23T02:39:27.008Z,19.60
2019-05-23T02:42:01.887Z,19.60
2019-05-23T02:44:32.288Z,19.60
2019-05-23T02:47:21.720Z,19.60
2019-05-23T02:49:51.151Z,19.60
2019-05-23T02:52:34.904Z,19.70
2019-05-23T02:55:05.405Z,19.60
2019-05-23T02:57:35.308Z,19.60
2019-05-23T03:00:29.220Z,19.60
2019-05-23T03:03:02.970Z,19.60
2019-05-23T03:05:34.824Z,19.60
2019-05-23T03:08:05.052Z,19.60
2019-05-23T03:11:09.682Z,19.60
2019-05-23T03:13:38.769Z,19.60
2019-05-23T03:16:08.655Z,19.60
2019-05-23T03:18:42.193Z,19.60
2019-05-23T03:21:12.402Z,19.60
2019-05-23T03:23:43.563Z,19.60
2019-05-23T03:26:51.703Z,19.50
2019-05-23T03:29:21.445Z,19.60
2019-05-23T03:32:05.738Z,19.60
2019-05-23T03:34:36.410Z,19.60
2019-05-23T03:37:06.962Z,19.60
2019-05-23T03:39:36.157Z,19.50
2019-05-23T03:42:05.336Z,19.50
2019-05-23T03:44:34.551Z,19.50
2019-05-23T03:47:05.175Z,19.50
2019-05-23T03:49:35.283Z,19.50
2019-05-23T03:52:05.547Z,19.50
2019-05-23T03:54:36.252Z,19.50
2019-05-23T03:57:05.936Z,19.50
2019-05-23T03:59:35.031Z,19.50
2019-05-23T04:02:05.861Z,19.50
2019-05-23T04:04:35.384Z,19.50
2019-05-23T04:07:05.261Z,19.50
2019-05-23T04:09:34.428Z,19.50
2019-05-23T04:12:03.634Z,19.50
2019-05-23T04:14:33.832Z,19.50
2019-05-23T04:17:04.451Z,19.50
2019-05-23T04:19:33.615Z,19.50
2019-05-23T04:22:03.208Z,19.50
2019-05-23T04:24:32.365Z,19.50
2019-05-23T04:27:01.566Z,19.50
2019-05-23T04:29:30.798Z,19.50
2019-05-23T04:32:07.635Z,19.50
2019-05-23T04:34:30.964Z,19.50
2019-05-23T04:37:00.220Z,19.50
2019-05-23T04:39:29.547Z,19.60
2019-05-23T04:41:59.806Z,19.60
2019-05-23T04:44:29.708Z,19.60
2019-05-23T04:46:58.977Z,19.60
2019-05-23T04:49:28.415Z,19.50
2019-05-23T04:51:57.728Z,19.50
2019-05-23T04:54:27.134Z,19.50
2019-05-23T04:56:57.121Z,19.40
2019-05-23T04:59:26.560Z,19.40
2019-05-23T05:01:58.844Z,19.40
2019-05-23T05:04:29.643Z,19.40
2019-05-23T05:06:59.265Z,19.40
2019-05-23T05:09:32.418Z,19.40
2019-05-23T05:12:01.929Z,19.40
2019-05-23T05:14:31.432Z,19.40
2019-05-23T05:17:00.793Z,19.40
2019-05-23T05:19:30.614Z,19.40
2019-05-23T05:22:00.044Z,19.40
2019-05-23T05:24:29.185Z,19.40
2019-05-23T05:26:58.398Z,19.30
2019-05-23T05:29:27.614Z,19.30
2019-05-23T05:31:56.693Z,19.30
2019-05-23T05:34:26.089Z,19.30
2019-05-23T05:36:55.230Z,19.30
2019-05-23T05:39:24.687Z,19.30
2019-05-23T05:41:53.762Z,19.30
2019-05-23T05:44:23.024Z,19.30
2019-05-23T05:46:52.933Z,19.30
2019-05-23T05:49:22.530Z,19.30
2019-05-23T05:51:51.875Z,19.30
2019-05-23T05:54:21.781Z,19.30
2019-05-23T05:56:50.928Z,19.20
2019-05-23T05:59:20.025Z,19.30
2019-05-23T06:01:50.052Z,19.20
2019-05-23T06:04:19.313Z,19.20
2019-05-23T06:06:57.171Z,19.20
2019-05-23T06:09:28.987Z,19.30
2019-05-23T06:11:58.010Z,19.30
2019-05-23T06:14:27.883Z,19.20
2019-05-23T06:16:57.767Z,19.20
2019-05-23T06:19:27.226Z,19.10
2019-05-23T06:21:56.714Z,19.10
2019-05-23T06:24:41.554Z,19.20
2019-05-23T06:26:57.722Z,19.10
2019-05-23T06:29:26.888Z,19.10
2019-05-23T06:31:56.072Z,19.10
2019-05-23T06:34:25.758Z,19.10
2019-05-23T06:36:55.904Z,19.10
2019-05-23T06:39:25.472Z,19.10
2019-05-23T06:41:54.671Z,19.10
2019-05-23T06:44:24.082Z,19.00
2019-05-23T06:46:53.241Z,19.10
2019-05-23T06:49:22.474Z,19.10
2019-05-23T06:51:51.816Z,19.10
2019-05-23T06:54:20.971Z,19.10
2019-05-23T06:56:50.117Z,19.10
2019-05-23T06:59:19.231Z,19.10
2019-05-23T07:01:48.347Z,19.10
2019-05-23T07:04:19.099Z,19.00
2019-05-23T07:06:48.262Z,19.10
2019-05-23T07:09:18.441Z,19.10
2019-05-23T07:11:47.608Z,19.10
2019-05-23T07:14:17.239Z,19.10
2019-05-23T07:16:50.270Z,19.10
2019-05-23T07:19:17.504Z,19.10
2019-05-23T07:21:46.777Z,19.10
2019-05-23T07:24:16.531Z,19.00
2019-05-23T07:26:46.589Z,19.00
2019-05-23T07:29:15.775Z,18.90
2019-05-23T07:31:44.959Z,18.90
2019-05-23T07:34:14.157Z,18.80
2019-05-23T07:36:43.452Z,18.80
2019-05-23T07:39:12.619Z,18.80
2019-05-23T07:41:42.334Z,18.90
2019-05-23T07:44:11.923Z,18.80
2019-05-23T07:46:41.094Z,18.70
2019-05-23T07:49:10.743Z,18.70
2019-05-23T07:51:39.937Z,18.70
2019-05-23T07:54:17.915Z,18.70
2019-05-23T07:56:47.621Z,18.60
2019-05-23T07:59:16.761Z,18.60
2019-05-23T08:01:49.938Z,18.70
2019-05-23T08:04:21.784Z,18.80
2019-05-23T08:06:50.047Z,18.60
2019-05-23T08:09:19.923Z,18.60
2019-05-23T08:11:49.355Z,18.70
2019-05-23T08:14:18.529Z,18.70
2019-05-23T08:16:47.812Z,18.60
2019-05-23T08:19:19.611Z,18.60
2019-05-23T08:21:48.320Z,18.60
2019-05-23T08:24:18.163Z,18.70
2019-05-23T08:26:47.809Z,18.80
2019-05-23T08:29:26.605Z,18.80
2019-05-23T08:31:48.123Z,18.80
2019-05-23T08:34:17.226Z,18.80
2019-05-23T08:36:46.367Z,18.80
2019-05-23T08:39:16.125Z,18.80
2019-05-23T08:41:45.351Z,18.80
2019-05-23T08:44:14.410Z,18.80
2019-05-23T08:46:43.808Z,18.80
2019-05-23T08:49:12.963Z,18.80
2019-05-23T08:51:42.211Z,18.70
2019-05-23T08:54:11.319Z,18.70
2019-05-23T08:56:40.487Z,18.70
2019-05-23T08:59:10.888Z,18.70
2019-05-23T09:01:40.028Z,18.70
2019-05-23T09:04:09.204Z,18.80
2019-05-23T09:06:39.160Z,18.80
2019-05-23T09:09:27.852Z,18.80
2019-05-23T09:11:40.511Z,18.80
2019-05-23T09:14:09.760Z,18.80
2019-05-23T09:16:39.366Z,18.70
2019-05-23T09:19:08.712Z,18.70
2019-05-23T09:21:38.945Z,18.70
2019-05-23T09:24:08.661Z,18.80
2019-05-23T09:26:38.198Z,18.70
2019-05-23T09:29:07.675Z,18.70
2019-05-23T09:31:37.333Z,18.70
2019-05-23T09:34:06.535Z,18.70
2019-05-23T09:36:35.628Z,18.80
2019-05-23T09:39:07.609Z,18.80
2019-05-23T09:41:36.966Z,18.70
2019-05-23T09:44:06.261Z,18.70
2019-05-23T09:46:35.310Z,18.80
2019-05-23T09:49:05.494Z,18.80
2019-05-23T09:51:34.653Z,18.80
2019-05-23T09:54:03.891Z,18.80
2019-05-23T09:56:33.958Z,18.80
2019-05-23T09:59:03.122Z,18.90
2019-05-23T10:01:32.564Z,18.90
2019-05-23T10:04:01.756Z,18.80
2019-05-23T10:06:30.945Z,18.80
2019-05-23T10:09:00.138Z,18.90
2019-05-23T10:11:29.299Z,18.90
2019-05-23T10:13:58.666Z,18.90
2019-05-23T10:16:28.415Z,18.80
2019-05-23T10:18:57.894Z,18.80
2019-05-23T10:21:27.114Z,18.80
2019-05-23T10:23:56.263Z,18.70
2019-05-23T10:26:26.339Z,18.70
2019-05-23T10:28:55.497Z,18.70
2019-05-23T10:31:25.113Z,18.80
2019-05-23T10:33:54.118Z,18.80
2019-05-23T10:36:23.285Z,18.80
2019-05-23T10:38:52.416Z,18.80
2019-05-23T10:41:21.613Z,18.80
2019-05-23T10:43:50.772Z,18.80
2019-05-23T10:46:19.930Z,18.90
2019-05-23T10:48:49.639Z,18.90
2019-05-23T10:51:18.778Z,18.90
2019-05-23T10:53:47.893Z,18.90
2019-05-23T10:56:20.620Z,18.90
2019-05-23T10:58:48.380Z,18.90
2019-05-23T11:01:17.586Z,18.90
2019-05-23T11:03:46.739Z,18.90
2019-05-23T11:06:17.079Z,18.90
2019-05-23T11:08:46.494Z,18.90
2019-05-23T11:11:15.678Z,19.00
2019-05-23T11:13:45.376Z,18.90
2019-05-23T11:16:14.600Z,18.90
2019-05-23T11:18:43.873Z,18.90
2019-05-23T11:21:13.090Z,18.90
2019-05-23T11:23:46.421Z,18.90
2019-05-23T11:26:16.011Z,19.00
2019-05-23T11:28:45.516Z,19.00
2019-05-23T11:31:15.152Z,19.00
2019-05-23T11:33:44.257Z,19.00
2019-05-23T11:36:13.720Z,19.00
2019-05-23T11:38:42.908Z,19.00
2019-05-23T11:41:12.287Z,18.90
2019-05-23T11:43:42.242Z,18.90
2019-05-23T11:46:21.341Z,18.90
2019-05-23T11:48:51.288Z,19.00
2019-05-23T11:51:25.214Z,19.00
2019-05-23T11:54:06.709Z,19.00
2019-05-23T11:56:22.999Z,19.00
2019-05-23T11:58:52.210Z,19.00
2019-05-23T12:01:34.890Z,19.00
2019-05-23T12:04:08.643Z,19.00
2019-05-23T12:07:06.244Z,19.00
2019-05-23T12:09:35.736Z,19.00
2019-05-23T12:12:05.073Z,19.00
2019-05-23T12:14:34.583Z,19.00
2019-05-23T12:17:04.038Z,19.00
2019-05-23T12:19:33.250Z,19.10
2019-05-23T12:22:02.440Z,19.10
2019-05-23T12:24:35.222Z,19.10
2019-05-23T12:27:02.767Z,19.10
2019-05-23T12:29:31.888Z,19.10
2019-05-23T12:32:01.259Z,19.10
2019-05-23T12:34:30.503Z,19.10
2019-05-23T12:37:16.972Z,19.10
2019-05-23T12:39:30.580Z,19.10
2019-05-23T12:41:59.730Z,19.10
2019-05-23T12:44:29.022Z,19.10
2019-05-23T12:46:59.250Z,19.10
2019-05-23T12:49:42.090Z,19.10
2019-05-23T12:52:12.674Z,19.10
2019-05-23T12:54:41.829Z,19.10
2019-05-23T12:57:11.119Z,19.10
2019-05-23T12:59:40.294Z,19.10
2019-05-23T13:02:12.900Z,19.10
2019-05-23T13:04:42.632Z,19.10
2019-05-23T13:07:12.439Z,19.10
2019-05-23T13:09:41.706Z,19.10
2019-05-23T13:12:10.884Z,19.10
2019-05-23T13:14:40.039Z,19.20
2019-05-23T13:17:09.210Z,19.20
2019-05-23T13:19:38.630Z,19.20
2019-05-23T13:22:09.469Z,19.20
2019-05-23T13:24:52.168Z,19.20
2019-05-23T13:27:09.454Z,19.20
2019-05-23T13:29:38.618Z,19.20
2019-05-23T13:32:07.695Z,19.20
2019-05-23T13:34:37.749Z,19.20
2019-05-23T13:37:08.510Z,19.30
2019-05-23T13:39:37.816Z,19.30
2019-05-23T13:42:06.970Z,19.30
2019-05-23T13:44:36.432Z,19.30
2019-05-23T13:47:05.833Z,19.30
2019-05-23T13:49:35.059Z,19.40
2019-05-23T13:52:04.278Z,19.40
2019-05-23T13:54:36.487Z,19.40
2019-05-23T13:57:06.096Z,19.40
2019-05-23T13:59:35.439Z,19.40
2019-05-23T14:02:06.150Z,19.40
2019-05-23T14:04:35.960Z,19.40
2019-05-23T14:07:06.809Z,19.40
2019-05-23T14:09:36.276Z,19.40
2019-05-23T14:12:20.568Z,19.40
2019-05-23T14:14:36.453Z,19.40
2019-05-23T14:17:33.559Z,19.50
2019-05-23T14:20:02.726Z,19.50
2019-05-23T14:22:33.357Z,19.50
2019-05-23T14:25:02.530Z,19.50
2019-05-23T14:27:42.209Z,19.50
2019-05-23T14:30:30.371Z,19.50
2019-05-23T14:33:01.099Z,19.50
2019-05-23T14:35:31.413Z,19.50
2019-05-23T14:38:02.596Z,19.60
2019-05-23T14:40:31.874Z,19.50
2019-05-23T14:43:17.901Z,19.50
2019-05-23T14:45:54.695Z,19.50
2019-05-23T14:48:34.156Z,19.60
2019-05-23T14:51:20.747Z,19.60
2019-05-23T14:53:54.007Z,19.60
2019-05-23T14:56:24.076Z,19.70
2019-05-23T14:58:53.338Z,19.70
2019-05-23T15:01:24.940Z,19.70
2019-05-23T15:03:54.081Z,19.70
2019-05-23T15:06:23.868Z,19.70
2019-05-23T15:08:52.980Z,19.70
2019-05-23T15:11:22.286Z,19.70
2019-05-23T15:13:51.753Z,19.80
2019-05-23T15:16:20.902Z,19.80
2019-05-23T15:18:50.077Z,19.80
2019-05-23T15:21:19.618Z,19.80
2019-05-23T15:23:48.694Z,19.80
2019-05-23T15:26:22.966Z,19.90
2019-05-23T15:28:48.998Z,19.80
2019-05-23T15:31:19.879Z,19.80
2019-05-23T15:33:49.224Z,19.80
2019-05-23T15:36:18.454Z,19.90
2019-05-23T15:38:47.605Z,19.90
2019-05-23T15:41:16.748Z,19.90
2019-05-23T15:43:45.902Z,19.90
2019-05-23T15:46:15.075Z,19.80
2019-05-23T15:48:45.008Z,19.90
2019-05-23T15:51:17.459Z,19.90
2019-05-23T15:54:14.655Z,19.90
2019-05-23T15:56:49.030Z,19.90
2019-05-23T15:59:32.006Z,19.90
2019-05-23T16:02:25.911Z,19.90
2019-05-23T16:04:57.873Z,19.90
2019-05-23T16:07:27.520Z,19.90
2019-05-23T16:09:56.661Z,19.90
2019-05-23T16:12:28.926Z,19.90
2019-05-23T16:14:58.022Z,19.90
2019-05-23T16:17:27.183Z,19.90
2019-05-23T16:19:56.286Z,19.90
2019-05-23T16:22:25.348Z,19.90
2019-05-23T16:24:54.550Z,19.80
2019-05-23T16:27:23.790Z,19.80
2019-05-23T16:29:52.975Z,19.90
2019-05-23T16:32:22.155Z,19.90
2019-05-23T16:34:51.334Z,19.90
2019-05-23T16:37:20.996Z,19.90
2019-05-23T16:39:51.183Z,19.90
2019-05-23T16:42:20.784Z,20.00
2019-05-23T16:44:49.930Z,20.00
2019-05-23T16:47:19.431Z,20.20
2019-05-23T16:49:48.603Z,20.20
2019-05-23T16:52:17.785Z,20.20
2019-05-23T16:54:48.504Z,20.10
2019-05-23T16:57:32.784Z,20.10
2019-05-23T17:00:20.451Z,20.10
2019-05-23T17:02:58.619Z,20.10
2019-05-23T17:05:52.807Z,20.10
2019-05-23T17:08:45.707Z,20.00
2019-05-23T17:11:23.871Z,20.10
2019-05-23T17:13:59.068Z,20.10
2019-05-23T17:16:49.980Z,20.10
2019-05-23T17:19:50.154Z,20.00
2019-05-23T17:22:38.222Z,20.10
2019-05-23T17:25:18.918Z,20.10
2019-05-23T17:27:54.637Z,20.10
2019-05-23T17:30:35.830Z,20.10
2019-05-23T17:33:07.034Z,20.00
2019-05-23T17:35:36.848Z,20.10
2019-05-23T17:38:06.028Z,20.10
2019-05-23T17:40:35.208Z,20.10
2019-05-23T17:43:04.382Z,20.10
2019-05-23T17:45:33.878Z,20.00
2019-05-23T17:48:03.763Z,20.00
2019-05-23T17:50:34.910Z,20.10
2019-05-23T17:53:04.448Z,20.00
2019-05-23T17:55:34.101Z,20.00
2019-05-23T17:58:03.295Z,20.00
2019-05-23T18:00:40.734Z,20.10
2019-05-23T18:03:10.387Z,20.20
2019-05-23T18:05:39.616Z,20.20
2019-05-23T18:08:10.094Z,20.30
2019-05-23T18:10:45.331Z,20.30
2019-05-23T18:13:11.030Z,20.30
2019-05-23T18:15:40.839Z,20.20
2019-05-23T18:18:10.054Z,20.10
2019-05-23T18:20:39.728Z,20.10
2019-05-23T18:23:09.608Z,20.10
2019-05-23T18:25:38.779Z,20.00
2019-05-23T18:28:09.465Z,20.00
2019-05-23T18:30:46.969Z,20.00
2019-05-23T18:33:16.593Z,20.00
2019-05-23T18:35:45.689Z,20.00
2019-05-23T18:38:15.249Z,20.00
2019-05-23T18:41:00.014Z,20.00
2019-05-23T18:43:16.149Z,20.00
2019-05-23T18:45:45.813Z,20.00
2019-05-23T18:48:15.134Z,20.00
2019-05-23T18:50:44.571Z,20.00
2019-05-23T18:53:13.734Z,20.00
2019-05-23T18:55:45.056Z,20.00
2019-05-23T18:58:18.263Z,20.00
2019-05-23T19:01:09.607Z,20.00
2019-05-23T19:03:39.089Z,20.00
2019-05-23T19:06:08.344Z,20.00
2019-05-23T19:08:37.745Z,20.00
2019-05-23T19:11:20.030Z,20.00
2019-05-23T19:13:38.101Z,20.00
2019-05-23T19:16:07.296Z,20.00
2019-05-23T19:18:38.248Z,20.00
2019-05-23T19:21:09.998Z,20.00
2019-05-23T19:23:39.511Z,20.00
2019-05-23T19:26:09.474Z,20.00
2019-05-23T19:28:39.359Z,20.00
2019-05-23T19:31:09.329Z,20.00
2019-05-23T19:33:39.602Z,20.10
2019-05-23T19:36:10.962Z,20.30
2019-05-23T19:38:40.406Z,20.10
2019-05-23T19:41:10.730Z,20.10
2019-05-23T19:43:40.187Z,20.00
2019-05-23T19:46:09.389Z,20.00
2019-05-23T19:48:39.704Z,19.90
2019-05-23T19:51:10.002Z,19.90
2019-05-23T19:53:39.980Z,19.90
2019-05-23T19:56:10.340Z,19.90
2019-05-23T19:58:39.496Z,19.90
2019-05-23T20:01:09.636Z,19.90
2019-05-23T20:03:38.808Z,19.90
2019-05-23T20:06:09.649Z,19.90
2019-05-23T20:08:38.928Z,19.80
2019-05-23T20:11:08.094Z,19.80
2019-05-23T20:13:39.238Z,19.80
2019-05-23T20:16:08.476Z,19.80
2019-05-23T20:18:37.838Z,19.80
2019-05-23T20:21:07.004Z,19.80
2019-05-23T20:23:36.130Z,19.80
2019-05-23T20:26:08.132Z,19.80
2019-05-23T20:28:39.781Z,19.80
2019-05-23T20:32:07.892Z,19.80
2019-05-23T20:43:02.709Z,19.70
2019-05-23T20:53:38.601Z,19.70
2019-05-23T20:55:59.531Z,19.70
2019-05-23T20:58:28.886Z,19.70
2019-05-23T21:01:17.216Z,19.70
2019-05-23T21:03:47.155Z,19.70
2019-05-23T21:06:17.078Z,19.70
2019-05-23T21:08:46.279Z,19.80
2019-05-23T21:11:15.785Z,19.80
2019-05-23T21:13:44.982Z,19.70
2019-05-23T21:16:14.428Z,19.70
2019-05-23T21:18:43.594Z,19.70
2019-05-23T21:21:12.873Z,19.70
2019-05-23T21:23:42.087Z,19.70
2019-05-23T21:26:11.317Z,19.70
2019-05-23T21:28:43.158Z,19.70
2019-05-23T21:31:17.898Z,19.70
2019-05-23T21:33:47.144Z,19.70
2019-05-23T21:36:16.203Z,19.70
2019-05-23T21:38:45.375Z,19.70
2019-05-23T21:41:14.712Z,19.70
2019-05-23T21:43:44.879Z,19.70
2019-05-23T21:46:14.103Z,19.70
2019-05-23T21:48:43.294Z,19.70
2019-05-23T21:51:12.459Z,19.70
2019-05-23T21:53:44.930Z,19.70
2019-05-23T21:56:14.015Z,19.70
2019-05-23T21:58:43.283Z,19.70
2019-05-23T22:01:31.897Z,19.70
2019-05-23T22:04:32.186Z,19.70
2019-05-23T22:07:06.056Z,19.70
2019-05-23T22:09:35.740Z,19.70
2019-05-23T22:12:06.479Z,19.70
2019-05-23T22:14:36.763Z,19.70
2019-05-23T22:17:06.411Z,19.80
2019-05-23T22:19:36.202Z,19.90
2019-05-23T22:22:05.461Z,19.90
2019-05-23T22:24:34.782Z,19.90
2019-05-23T22:27:04.042Z,19.90
2019-05-23T22:29:33.203Z,19.90
2019-05-23T22:32:02.438Z,19.90
2019-05-23T22:34:40.561Z,19.90
2019-05-23T22:37:24.494Z,19.80
2019-05-23T22:39:53.651Z,19.90
2019-05-23T22:42:23.685Z,19.90
2019-05-23T22:44:53.213Z,19.90
2019-05-23T22:47:22.820Z,19.90
2019-05-23T22:49:51.907Z,19.90
2019-05-23T22:52:20.993Z,19.90
2019-05-23T22:54:50.203Z,19.90
2019-05-23T22:57:19.430Z,19.90
2019-05-23T22:59:48.546Z,19.90
2019-05-23T23:02:18.297Z,19.90
2019-05-23T23:04:47.375Z,19.90
2019-05-23T23:07:16.980Z,19.90
2019-05-23T23:09:46.088Z,19.90
2019-05-23T23:12:15.249Z,19.90
2019-05-23T23:14:44.332Z,19.90
2019-05-23T23:17:13.464Z,19.90
2019-05-23T23:19:42.554Z,19.90
2019-05-23T23:22:11.655Z,19.90
2019-05-23T23:24:40.798Z,19.90
2019-05-23T23:27:10.000Z,19.80
2019-05-23T23:29:39.139Z,19.90
2019-05-23T23:32:09.058Z,19.90
2019-05-23T23:34:38.232Z,19.80
2019-05-23T23:37:07.391Z,19.90
2019-05-23T23:39:37.351Z,19.80
2019-05-23T23:42:07.423Z,19.90
2019-05-23T23:44:35.639Z,19.90
2019-05-23T23:47:23.163Z,19.80
2019-05-23T23:50:10.069Z,19.80
2019-05-23T23:52:57.167Z,19.80
2019-05-23T23:55:43.989Z,19.80
2019-05-23T23:58:12.206Z,19.80
